Singer, LA

12:21 PM CST on February 28, 2015 (GMT -0600)
APRSWXNET Lake Charles LA US | Change Station
CLOSE
Current Station
Personal Weather Station
Location: Lake Charles, LA
Elevation: 22 ft
Nearby Weather Stations

Elev 22 ft 30.36 °N, 93.27 °W | Updated 33 minutes ago

Overcast
Overcast
57 °F
Feels Like 57 °F
N
1
Wind Variable Wind from ESE
Gusts 11.0 mph

Today
High -- | Low -- °F
--% Chance of Precip.
Yesterday
High -- | Low -- °F
Precip. -- in
6:41 AM 6:11 PM
Waxing Gibbous, 79% visible
Pressure 30.35 in
Visibility 10.0 miles
Clouds Scattered Clouds 7500 ft
Overcast 9500 ft
Dew Point 43 °F
Humidity 60%
Rainfall 0.00 in
Snow Depth Not available.
UV 2 out of 12
Pollen 9.20 out of 12
Air Quality Not available.
Flu Activity Not available.
METAR KDRI 281815Z AUTO 00000KT 10SM SCT075 OVC095 12/00 A3035 RMK AO2 T01240001

More Conditions Fewer Conditions

Pressure 30.35 in
Visibility 10.0 miles
Clouds Scattered Clouds 7500 ft
Overcast 9500 ft
Dew Point 43 °F
Humidity 60%
Rainfall 0.00 in
Snow Depth Not available.
UV 2 out of 12
Pollen 9.20 out of 12
Air Quality Not available.
Flu Activity Not available.
METAR KDRI 281815Z AUTO 00000KT 10SM SCT075 OVC095 12/00 A3035 RMK AO2 T01240001

More Conditions Fewer Conditions

10-Day Weather Forecast

Almanac

Astronomy

Feb. 28, 2015 Rise Set
Actual Time
Civil Twilight
Nautical Twilight
Astronomical Twilight
Moon
Length of Visible Light
Length of Day
Tomorrow will be .
, % of the Moon is Illuminated

Today's Extremes

State Highs State Lows

Community

WunderPhotos

Upload Photos

1,801,106 photos uploaded!

WunderBlogs® & News

Nearby

Air Quality

  Air Quality AQ Index Pollutant
Not available.

Snow Depth

Station Depth Elevation

Earthquake Activity

City Distance Mag. Time & Date
Minimum magnitude displayed is 2.5.

Coastal Water Temperatures

Place Temperature

Nearby Weather Stations